MYF Airport (Montgomery-Gibbs Executive) Information

FAA: MYF - ICAO: KMYF

MYF Airport Location

State California
County San Diego
City San Diego
MYF Airport is 6 miles north of San Diego, CA.
Latitude 32-48-56.6000N
Longitude 117-08-22.4000W
Elevation 427ft

KMYF Airport METARs

METAR KMYF 251653Z 17008KT 10SM FEW017 OVC028 18/13 A2996 RMK AO2 SLP141 T01780128
Altimeter 29.96"
Temperature 17.8°C (64.0°F)
Wind 170° at 8KT
Clouds few at 1,700ft overcast at 2,800ft
Visibility 10.0mi
Time observed: 2021-10-25T16:53:00Z

MYF Airport Details

Status Operational
Activation July 1940
Ownership Public
Usage Public
Chart LOS ANGELES
ATC on-site Yes
Beacon schedule sunset-sunrise
Beacon color clear green

MYF Airport Contacts

Owner CITY OF SAN DIEGO
Owner address 3750 JOHN J MONTGOMERY DR, SAN DIEGO, CA 92123
Owner phone 858-573-1440
Manager GARY TILTON
Manager address 3020 CHILDREN'S WAY, SAN DIEGO, CA 92123-4282
Manager phone 858-576-1700

MYF Airport (Montgomery-Gibbs Executive) Radio Frequencies

MYF (Airport) Radio Frequencies

UNICOM 122.95
Common traffic advisory frequency (CTAF) 119.2